createdAt,value
2018-09-21T00:00:15.859Z,62.70
2018-09-21T00:02:44.642Z,62.60
2018-09-21T00:05:13.386Z,62.50
2018-09-21T00:07:42.249Z,62.60
2018-09-21T00:10:11.101Z,62.40
2018-09-21T00:12:39.846Z,62.40
2018-09-21T00:15:08.657Z,62.10
2018-09-21T00:17:37.461Z,61.70
2018-09-21T00:20:06.285Z,61.70
2018-09-21T00:22:35.047Z,61.60
2018-09-21T00:25:03.901Z,61.10
2018-09-21T00:27:32.685Z,61.40
2018-09-21T00:30:01.459Z,60.20
2018-09-21T00:32:30.233Z,60.50
2018-09-21T00:34:59.015Z,60.50
2018-09-21T00:37:27.827Z,60.40
2018-09-21T00:39:56.621Z,60.10
2018-09-21T00:42:25.381Z,60.00
2018-09-21T00:44:54.143Z,60.10
2018-09-21T00:47:22.949Z,60.70
2018-09-21T00:49:51.728Z,61.10
2018-09-21T00:52:20.523Z,60.40
2018-09-21T00:54:49.314Z,60.30
2018-09-21T00:57:18.100Z,60.60
2018-09-21T00:59:46.908Z,60.00
2018-09-21T01:02:15.704Z,60.10
2018-09-21T01:04:46.170Z,60.00
2018-09-21T01:07:15.645Z,60.40
2018-09-21T01:09:45.001Z,60.80
2018-09-21T01:12:13.780Z,60.60
2018-09-21T01:14:42.534Z,60.00
2018-09-21T01:17:11.324Z,60.50
2018-09-21T01:19:40.171Z,60.10
2018-09-21T01:22:08.931Z,60.20
2018-09-21T01:24:37.749Z,60.30
2018-09-21T01:27:06.528Z,60.40
2018-09-21T01:29:35.341Z,60.20
2018-09-21T01:32:04.123Z,60.20
2018-09-21T01:34:32.937Z,59.60
2018-09-21T01:37:01.771Z,59.40
2018-09-21T01:39:30.640Z,60.00
2018-09-21T01:41:59.404Z,60.00
2018-09-21T01:44:28.277Z,60.10
2018-09-21T01:46:57.049Z,60.20
2018-09-21T01:49:25.823Z,60.50
2018-09-21T01:51:54.585Z,60.20
2018-09-21T01:54:23.381Z,60.10
2018-09-21T01:56:52.148Z,60.20
2018-09-21T01:59:20.934Z,59.80
2018-09-21T02:01:50.518Z,59.80
2018-09-21T02:04:19.402Z,59.50
2018-09-21T02:06:48.185Z,59.60
2018-09-21T02:09:16.986Z,59.90
2018-09-21T02:11:46.318Z,59.80
2018-09-21T02:14:17.775Z,59.90
2018-09-21T02:16:48.914Z,60.10
2018-09-21T02:19:19.756Z,60.20
2018-09-21T02:21:49.596Z,60.40
2018-09-21T02:24:18.357Z,60.50
2018-09-21T02:26:47.284Z,61.00
2018-09-21T02:29:16.282Z,60.40
2018-09-21T02:31:45.556Z,60.20
2018-09-21T02:34:14.388Z,60.80
2018-09-21T02:36:43.177Z,60.50
2018-09-21T02:39:12.045Z,60.30
2018-09-21T02:41:40.829Z,60.50
2018-09-21T02:44:09.612Z,60.10
2018-09-21T02:46:38.437Z,60.70
2018-09-21T02:49:07.238Z,60.50
2018-09-21T02:51:36.032Z,60.70
2018-09-21T02:54:04.797Z,61.30
2018-09-21T02:56:34.117Z,61.00
2018-09-21T02:59:03.163Z,60.90
2018-09-21T03:01:32.748Z,60.90
2018-09-21T03:04:01.757Z,61.00
2018-09-21T03:06:30.609Z,61.30
2018-09-21T03:08:59.425Z,61.20
2018-09-21T03:11:28.201Z,61.00
2018-09-21T03:13:56.969Z,62.00
2018-09-21T03:16:25.746Z,61.80
2018-09-21T03:18:54.509Z,61.20
2018-09-21T03:21:23.349Z,60.60
2018-09-21T03:23:52.108Z,60.80
2018-09-21T03:26:20.931Z,61.00
2018-09-21T03:28:49.678Z,61.10
2018-09-21T03:31:18.457Z,60.80
2018-09-21T03:33:47.488Z,60.70
2018-09-21T03:36:16.276Z,60.80
2018-09-21T03:38:45.056Z,60.70
2018-09-21T03:41:13.889Z,60.70
2018-09-21T03:43:42.764Z,61.00
2018-09-21T03:46:11.584Z,60.70
2018-09-21T03:48:40.458Z,61.20
2018-09-21T03:51:15.083Z,61.20
2018-09-21T03:53:43.944Z,60.70
2018-09-21T03:56:12.781Z,60.40
2018-09-21T03:58:41.606Z,60.50
2018-09-21T04:01:10.485Z,60.20
2018-09-21T04:03:39.218Z,60.40
2018-09-21T04:06:07.999Z,60.40
2018-09-21T04:08:36.853Z,60.70
2018-09-21T04:11:06.129Z,60.70
2018-09-21T04:13:34.936Z,60.70
2018-09-21T04:16:03.761Z,60.90
2018-09-21T04:18:32.610Z,60.90
2018-09-21T04:21:01.475Z,61.30
2018-09-21T04:23:30.296Z,60.20
2018-09-21T04:25:59.113Z,60.70
2018-09-21T04:28:27.903Z,60.30
2018-09-21T04:30:56.688Z,60.80
2018-09-21T04:33:25.554Z,60.50
2018-09-21T04:35:54.379Z,60.20
2018-09-21T04:38:23.158Z,60.50
2018-09-21T04:40:52.001Z,59.90
2018-09-21T04:43:20.778Z,60.20
2018-09-21T04:45:49.606Z,61.00
2018-09-21T04:48:18.386Z,60.80
2018-09-21T04:50:47.431Z,60.80
2018-09-21T04:53:16.178Z,60.50
2018-09-21T04:55:44.933Z,60.50
2018-09-21T04:58:13.739Z,60.10
2018-09-21T05:00:42.470Z,60.20
2018-09-21T05:03:17.750Z,59.30
2018-09-21T05:05:46.503Z,60.10
2018-09-21T05:08:15.278Z,59.80
2018-09-21T05:10:44.093Z,60.00
2018-09-21T05:13:12.896Z,60.40
2018-09-21T05:15:41.836Z,60.40
2018-09-21T05:18:10.699Z,60.70
2018-09-21T05:20:39.570Z,61.00
2018-09-21T05:23:08.357Z,60.00
2018-09-21T05:25:37.104Z,60.90
2018-09-21T05:28:05.949Z,61.00
2018-09-21T05:30:41.093Z,60.30
2018-09-21T05:33:09.869Z,60.60
2018-09-21T05:35:38.819Z,60.70
2018-09-21T05:38:07.559Z,60.70
2018-09-21T05:40:36.268Z,59.90
2018-09-21T05:43:05.151Z,60.30
2018-09-21T05:45:34.249Z,60.00
2018-09-21T05:48:03.018Z,59.90
2018-09-21T05:50:31.824Z,59.70
2018-09-21T05:53:00.569Z,59.80
2018-09-21T05:55:29.306Z,59.90
2018-09-21T05:57:58.405Z,59.50
2018-09-21T06:00:27.209Z,59.50
2018-09-21T06:02:56.015Z,59.10
2018-09-21T06:05:24.724Z,58.70
2018-09-21T06:07:53.560Z,58.70
2018-09-21T06:10:22.549Z,59.10
2018-09-21T06:12:51.277Z,59.90
2018-09-21T06:15:20.010Z,58.90
2018-09-21T06:17:48.806Z,58.00
2018-09-21T06:20:17.601Z,57.90
2018-09-21T06:22:46.380Z,57.10
2018-09-21T06:25:15.163Z,56.90
2018-09-21T06:27:43.961Z,56.90
2018-09-21T06:30:12.722Z,56.20
2018-09-21T06:32:41.652Z,56.50
2018-09-21T06:35:10.400Z,57.20
2018-09-21T06:37:39.264Z,56.90
2018-09-21T06:40:08.204Z,56.30
2018-09-21T06:42:38.118Z,56.30
2018-09-21T06:45:07.057Z,56.40
2018-09-21T06:47:35.859Z,56.50
2018-09-21T06:50:04.723Z,56.30
2018-09-21T06:52:33.465Z,56.80
2018-09-21T06:55:02.506Z,58.20
2018-09-21T06:57:31.327Z,58.70
2018-09-21T07:00:00.161Z,60.00
2018-09-21T07:02:28.910Z,60.20
2018-09-21T07:05:02.936Z,61.00
2018-09-21T07:07:31.694Z,65.50
2018-09-21T07:10:00.471Z,69.20
2018-09-21T07:12:29.253Z,72.80
2018-09-21T07:14:58.015Z,75.50
2018-09-21T07:17:26.755Z,77.20
2018-09-21T07:19:55.555Z,79.40
2018-09-21T07:22:24.430Z,80.90
2018-09-21T07:24:53.166Z,81.40
2018-09-21T07:27:21.990Z,83.30
2018-09-21T07:29:50.841Z,83.80
2018-09-21T07:32:19.770Z,84.40
2018-09-21T07:34:48.566Z,84.70
2018-09-21T07:37:17.477Z,85.10
2018-09-21T07:39:46.262Z,84.80
2018-09-21T07:42:15.229Z,84.30
2018-09-21T07:44:43.999Z,84.60
2018-09-21T07:47:13.041Z,86.50
2018-09-21T07:49:41.902Z,86.20
2018-09-21T07:52:10.654Z,85.50
2018-09-21T07:54:39.481Z,85.60
2018-09-21T07:57:08.278Z,84.80
2018-09-21T07:59:37.106Z,85.30
2018-09-21T08:02:05.922Z,85.60
2018-09-21T08:04:34.798Z,85.80
2018-09-21T08:07:03.663Z,86.60
2018-09-21T08:09:32.399Z,85.50
2018-09-21T08:12:01.200Z,84.60
2018-09-21T08:14:29.969Z,83.90
2018-09-21T08:16:58.700Z,83.50
2018-09-21T08:19:27.541Z,83.70
2018-09-21T08:21:56.237Z,83.10
2018-09-21T08:24:25.009Z,85.00
2018-09-21T08:26:53.948Z,84.90
2018-09-21T08:29:22.743Z,83.80
2018-09-21T08:31:51.521Z,83.60
2018-09-21T08:34:20.315Z,83.80
2018-09-21T08:36:49.082Z,82.10
2018-09-21T08:39:17.929Z,81.80
2018-09-21T08:41:46.750Z,81.10
2018-09-21T08:44:15.603Z,79.90
2018-09-21T08:46:44.395Z,79.20
2018-09-21T08:49:13.154Z,79.00
2018-09-21T08:51:41.976Z,78.90
2018-09-21T08:54:10.770Z,79.20
2018-09-21T08:56:39.522Z,79.20
2018-09-21T08:59:08.369Z,77.80
2018-09-21T09:01:37.186Z,77.70
2018-09-21T09:04:05.984Z,75.70
2018-09-21T09:06:34.821Z,74.20
2018-09-21T09:09:03.922Z,74.00
2018-09-21T09:11:32.796Z,72.10
2018-09-21T09:14:01.599Z,71.90
2018-09-21T09:16:30.401Z,71.80
2018-09-21T09:18:59.186Z,71.90
2018-09-21T09:21:28.138Z,71.50
2018-09-21T09:23:56.930Z,70.80
2018-09-21T09:26:25.754Z,69.50
2018-09-21T09:28:54.646Z,69.90
2018-09-21T09:31:23.492Z,71.20
2018-09-21T09:33:52.264Z,71.80
2018-09-21T09:36:20.996Z,72.10
2018-09-21T09:38:50.107Z,71.00
2018-09-21T09:41:18.986Z,70.90
2018-09-21T09:43:48.147Z,70.30
2018-09-21T09:46:16.967Z,69.20
2018-09-21T09:48:45.735Z,69.80
2018-09-21T09:51:14.578Z,68.80
2018-09-21T09:53:43.353Z,66.90
2018-09-21T09:56:12.153Z,66.70
2018-09-21T09:58:40.976Z,65.50
2018-09-21T10:01:09.776Z,65.20
2018-09-21T10:03:38.638Z,64.20
2018-09-21T10:06:07.042Z,63.90
2018-09-21T10:08:36.033Z,63.40
2018-09-21T10:11:04.804Z,63.10
2018-09-21T10:13:33.561Z,64.80
2018-09-21T10:16:02.408Z,64.60
2018-09-21T10:18:31.153Z,63.60
2018-09-21T10:20:59.944Z,62.80
2018-09-21T10:23:28.720Z,62.20
2018-09-21T10:25:57.514Z,60.80
2018-09-21T10:28:26.432Z,59.60
2018-09-21T10:30:55.084Z,59.60
2018-09-21T10:33:23.890Z,60.50
2018-09-21T10:35:52.673Z,61.20
2018-09-21T10:38:21.437Z,63.50
2018-09-21T10:40:50.148Z,65.40
2018-09-21T10:43:18.956Z,67.30
2018-09-21T10:45:48.017Z,68.10
2018-09-21T10:48:16.897Z,68.50
2018-09-21T10:50:45.691Z,68.10
2018-09-21T10:53:14.486Z,68.80
2018-09-21T10:55:43.325Z,68.20
2018-09-21T10:58:12.087Z,67.10
2018-09-21T11:00:41.257Z,66.30
2018-09-21T11:03:10.001Z,65.10
2018-09-21T11:05:38.821Z,65.00
2018-09-21T11:08:07.606Z,61.10
2018-09-21T11:10:36.445Z,60.70
2018-09-21T11:13:05.391Z,60.70
2018-09-21T11:15:34.142Z,60.00
2018-09-21T11:18:03.109Z,59.10
2018-09-21T11:20:31.900Z,57.40
2018-09-21T11:23:00.680Z,56.40
2018-09-21T11:25:29.469Z,56.60
2018-09-21T11:27:58.288Z,56.90
2018-09-21T11:30:27.244Z,57.10
2018-09-21T11:32:56.049Z,58.00
2018-09-21T11:35:24.805Z,57.20
2018-09-21T11:37:53.584Z,55.40
2018-09-21T11:40:24.013Z,56.30
2018-09-21T11:42:52.857Z,54.00
2018-09-21T11:45:21.714Z,55.80
2018-09-21T11:47:50.609Z,54.50
2018-09-21T11:50:19.413Z,53.80
2018-09-21T11:52:48.243Z,53.00
2018-09-21T11:55:17.226Z,54.10
2018-09-21T11:57:45.995Z,54.40
2018-09-21T12:00:20.043Z,54.90
2018-09-21T12:03:05.626Z,55.70
2018-09-21T12:06:02.051Z,56.80
2018-09-21T12:08:33.067Z,60.80
2018-09-21T12:11:19.570Z,63.20
2018-09-21T12:13:49.077Z,64.10
2018-09-21T12:16:17.878Z,65.00
2018-09-21T12:18:46.721Z,65.70
2018-09-21T12:21:15.505Z,65.20
2018-09-21T12:23:44.266Z,64.10
2018-09-21T12:26:13.030Z,62.90
2018-09-21T12:28:41.835Z,60.30
2018-09-21T12:31:10.606Z,59.70
2018-09-21T12:33:39.373Z,57.00
2018-09-21T12:36:09.449Z,57.80
2018-09-21T12:38:38.301Z,58.90
2018-09-21T12:41:07.043Z,57.90
2018-09-21T12:43:35.797Z,56.60
2018-09-21T12:46:07.976Z,56.70
2018-09-21T12:48:36.729Z,57.30
2018-09-21T12:51:05.507Z,56.10
2018-09-21T12:53:34.274Z,55.30
2018-09-21T12:56:03.068Z,54.10
2018-09-21T12:58:32.343Z,53.90
2018-09-21T13:01:01.048Z,55.80
2018-09-21T13:03:29.856Z,54.60
2018-09-21T13:05:58.647Z,52.30
2018-09-21T13:08:27.511Z,53.30
2018-09-21T13:10:56.550Z,54.10
2018-09-21T13:13:25.358Z,52.00
2018-09-21T13:15:54.167Z,51.30
2018-09-21T13:18:22.966Z,49.80
2018-09-21T13:20:51.725Z,48.60
2018-09-21T13:23:20.855Z,49.20
2018-09-21T13:25:49.698Z,48.50
2018-09-21T13:28:18.472Z,48.70
2018-09-21T13:30:47.275Z,48.00
2018-09-21T13:33:16.052Z,47.90
2018-09-21T13:35:44.865Z,47.50
2018-09-21T13:38:13.636Z,48.60
2018-09-21T13:40:42.397Z,50.90
2018-09-21T13:43:11.160Z,52.20
2018-09-21T13:45:39.989Z,49.00
2018-09-21T13:48:08.807Z,49.30
2018-09-21T13:50:37.674Z,48.60
2018-09-21T13:53:06.503Z,47.90
2018-09-21T13:55:35.327Z,48.30
2018-09-21T13:58:04.192Z,47.50
2018-09-21T14:00:32.925Z,49.00
2018-09-21T14:03:01.657Z,49.00
2018-09-21T14:05:30.527Z,47.50
2018-09-21T14:07:59.237Z,46.30
2018-09-21T14:10:28.016Z,46.70
2018-09-21T14:12:56.833Z,47.40
2018-09-21T14:15:25.636Z,47.70
2018-09-21T14:17:54.412Z,47.00
2018-09-21T14:20:23.176Z,48.80
2018-09-21T14:22:51.978Z,46.90
2018-09-21T14:25:20.766Z,47.60
2018-09-21T14:27:49.500Z,46.80
2018-09-21T14:30:18.330Z,44.00
2018-09-21T14:32:47.155Z,44.30
2018-09-21T14:35:15.874Z,44.00
2018-09-21T14:37:44.781Z,44.60
2018-09-21T14:40:13.534Z,46.10
2018-09-21T14:42:42.410Z,46.30
2018-09-21T14:45:11.183Z,46.90
2018-09-21T14:47:40.045Z,47.50
2018-09-21T14:50:09.345Z,46.10
2018-09-21T14:52:38.314Z,46.80
2018-09-21T14:55:08.590Z,46.40
2018-09-21T14:57:37.374Z,46.00
2018-09-21T15:00:06.169Z,46.00
2018-09-21T15:02:34.914Z,45.30
2018-09-21T15:05:03.714Z,45.90
2018-09-21T15:07:32.607Z,42.20
2018-09-21T15:10:08.277Z,42.30
2018-09-21T15:12:38.777Z,41.90
2018-09-21T15:15:07.718Z,44.00
2018-09-21T15:17:36.717Z,44.20
2018-09-21T15:20:05.801Z,44.60
2018-09-21T15:22:34.989Z,44.90
2018-09-21T15:25:04.109Z,44.60
2018-09-21T15:27:33.685Z,45.60
2018-09-21T15:30:03.222Z,44.90
2018-09-21T15:32:34.046Z,44.60
2018-09-21T15:35:03.138Z,44.80
2018-09-21T15:37:40.147Z,44.30
2018-09-21T15:40:09.233Z,44.70
2018-09-21T15:42:45.495Z,44.10
2018-09-21T15:45:15.958Z,46.10
2018-09-21T15:47:46.819Z,46.20
2018-09-21T15:50:15.623Z,46.80
2018-09-21T15:52:45.877Z,45.80
2018-09-21T15:55:15.498Z,46.60
2018-09-21T15:57:45.007Z,45.30
2018-09-21T16:00:15.190Z,45.40
2018-09-21T16:02:47.244Z,45.00
2018-09-21T16:05:20.113Z,45.00
2018-09-21T16:07:49.149Z,45.40
2018-09-21T16:10:21.359Z,44.60
2018-09-21T16:12:53.156Z,45.40
2018-09-21T16:15:22.017Z,46.20
2018-09-21T16:17:51.941Z,47.20
2018-09-21T16:20:22.068Z,47.60
2018-09-21T16:22:51.481Z,47.90
2018-09-21T16:25:20.250Z,49.00
2018-09-21T16:27:59.557Z,48.40
2018-09-21T16:30:30.376Z,47.70
2018-09-21T16:33:00.807Z,47.70
2018-09-21T16:35:37.828Z,48.30
2018-09-21T16:38:08.231Z,48.60
2018-09-21T16:40:39.259Z,49.10
2018-09-21T16:43:08.670Z,48.50
2018-09-21T16:45:37.517Z,48.70
2018-09-21T16:48:06.605Z,48.90
2018-09-21T16:50:35.380Z,47.70
2018-09-21T16:53:04.116Z,48.70
2018-09-21T16:55:33.177Z,48.00
2018-09-21T16:58:02.033Z,46.90
2018-09-21T17:00:30.845Z,47.00
2018-09-21T17:03:00.817Z,47.60
2018-09-21T17:05:30.350Z,47.80
2018-09-21T17:08:02.889Z,47.40
2018-09-21T17:10:31.660Z,47.50
2018-09-21T17:13:00.410Z,48.30
2018-09-21T17:15:29.196Z,48.20
2018-09-21T17:18:00.025Z,48.70
2018-09-21T17:20:29.269Z,48.30
2018-09-21T17:22:58.172Z,48.00
2018-09-21T17:25:26.906Z,49.20
2018-09-21T17:27:55.698Z,50.10
2018-09-21T17:30:24.522Z,50.10
2018-09-21T17:32:53.512Z,52.30
2018-09-21T17:35:22.302Z,54.10
2018-09-21T17:37:51.127Z,57.40
2018-09-21T17:40:20.176Z,59.30
2018-09-21T17:42:49.003Z,61.90
2018-09-21T17:45:17.838Z,61.20
2018-09-21T17:47:46.946Z,66.30
2018-09-21T17:50:15.828Z,68.00
2018-09-21T17:52:46.527Z,69.90
2018-09-21T17:55:15.528Z,71.40
2018-09-21T17:57:44.673Z,73.40
2018-09-21T18:00:21.018Z,72.40
2018-09-21T18:02:51.692Z,73.60
2018-09-21T18:05:20.788Z,74.20
2018-09-21T18:07:49.514Z,75.70
2018-09-21T18:10:18.256Z,75.80
2018-09-21T18:12:47.773Z,75.90
2018-09-21T18:15:16.648Z,75.50
2018-09-21T18:17:45.571Z,75.60
2018-09-21T18:20:14.351Z,75.40
2018-09-21T18:22:53.225Z,74.40
2018-09-21T18:25:22.242Z,76.50
2018-09-21T18:27:51.076Z,77.10
2018-09-21T18:30:19.909Z,79.30
2018-09-21T18:32:48.803Z,78.60
2018-09-21T18:35:17.597Z,78.60
2018-09-21T18:37:46.514Z,79.10
2018-09-21T18:40:15.302Z,79.70
2018-09-21T18:42:44.190Z,79.00
2018-09-21T18:45:13.244Z,79.30
2018-09-21T18:47:42.056Z,78.70
2018-09-21T18:50:10.901Z,79.30
2018-09-21T18:52:39.967Z,78.50
2018-09-21T18:55:08.738Z,78.20
2018-09-21T18:57:37.563Z,77.70
2018-09-21T19:00:07.312Z,77.50
2018-09-21T19:02:36.129Z,79.00
2018-09-21T19:05:04.966Z,78.80
2018-09-21T19:07:33.756Z,78.50
2018-09-21T19:10:02.667Z,78.40
2018-09-21T19:12:31.448Z,77.60
2018-09-21T19:15:00.222Z,77.20
2018-09-21T19:17:29.270Z,77.50
2018-09-21T19:19:58.073Z,76.60
2018-09-21T19:22:26.861Z,76.50
2018-09-21T19:24:55.713Z,76.50
2018-09-21T19:27:24.528Z,76.70
2018-09-21T19:29:53.386Z,77.50
2018-09-21T19:32:22.113Z,77.70
2018-09-21T19:34:50.867Z,78.60
2018-09-21T19:37:19.728Z,78.60
2018-09-21T19:39:48.531Z,78.50
2018-09-21T19:42:17.320Z,80.00
2018-09-21T19:44:46.127Z,81.00
2018-09-21T19:47:14.983Z,81.10
2018-09-21T19:49:43.907Z,81.00
2018-09-21T19:52:12.913Z,81.20
2018-09-21T19:54:41.713Z,82.70
2018-09-21T19:57:10.515Z,83.70
2018-09-21T19:59:39.503Z,83.70
2018-09-21T20:02:08.585Z,83.60
2018-09-21T20:04:37.438Z,83.70
2018-09-21T20:07:06.252Z,84.90
2018-09-21T20:09:35.086Z,84.20
2018-09-21T20:12:03.892Z,83.90
2018-09-21T20:14:32.703Z,84.30
2018-09-21T20:17:01.476Z,84.70
2018-09-21T20:19:30.311Z,84.90
2018-09-21T20:21:59.056Z,84.30
2018-09-21T20:24:28.666Z,83.50
2018-09-21T20:26:58.152Z,83.60
2018-09-21T20:29:27.571Z,83.60
2018-09-21T20:32:02.607Z,83.60
2018-09-21T20:34:32.060Z,83.10
2018-09-21T20:37:01.553Z,82.50
2018-09-21T20:39:30.767Z,82.30
2018-09-21T20:42:00.625Z,83.00
2018-09-21T20:44:29.549Z,83.60
2018-09-21T20:46:58.909Z,84.00
2018-09-21T20:49:27.692Z,83.30
2018-09-21T20:51:57.716Z,83.20
2018-09-21T20:54:26.562Z,83.20
2018-09-21T20:57:27.085Z,82.50
2018-09-21T21:00:10.142Z,83.00
2018-09-21T21:02:38.862Z,83.00
2018-09-21T21:05:08.111Z,83.50
2018-09-21T21:07:36.868Z,82.50
2018-09-21T21:10:05.636Z,82.50
2018-09-21T21:12:34.859Z,82.00
2018-09-21T21:15:03.639Z,81.70
2018-09-21T21:17:32.416Z,81.50
2018-09-21T21:20:01.164Z,83.20
2018-09-21T21:22:29.951Z,82.90
2018-09-21T21:24:58.704Z,82.50
2018-09-21T21:27:28.385Z,81.60
2018-09-21T21:29:57.149Z,81.10
2018-09-21T21:32:28.020Z,81.50
2018-09-21T21:34:56.855Z,81.60
2018-09-21T21:37:25.614Z,81.40
2018-09-21T21:39:54.352Z,81.70
2018-09-21T21:42:23.122Z,81.00
2018-09-21T21:44:51.901Z,80.70
2018-09-21T21:47:20.655Z,81.30
2018-09-21T21:49:49.405Z,82.50
2018-09-21T21:52:19.045Z,81.80
2018-09-21T21:54:49.352Z,81.70
2018-09-21T21:57:18.281Z,81.60
2018-09-21T21:59:47.029Z,81.60
2018-09-21T22:02:15.906Z,81.40
2018-09-21T22:04:44.650Z,82.00
2018-09-21T22:07:13.540Z,81.60
2018-09-21T22:09:42.397Z,81.70
2018-09-21T22:12:16.495Z,81.30
2018-09-21T22:14:45.272Z,81.10
2018-09-21T22:17:14.031Z,80.90
2018-09-21T22:19:42.867Z,80.40
2018-09-21T22:22:11.628Z,80.50
2018-09-21T22:24:40.420Z,80.50
2018-09-21T22:27:09.235Z,81.00
2018-09-21T22:29:38.053Z,81.20
2018-09-21T22:32:06.937Z,81.00
2018-09-21T22:34:35.727Z,80.80
2018-09-21T22:37:04.517Z,80.60
2018-09-21T22:39:33.268Z,80.70
2018-09-21T22:42:02.094Z,80.50
2018-09-21T22:44:30.871Z,80.60
2018-09-21T22:46:59.931Z,81.20
2018-09-21T22:49:28.713Z,81.00
2018-09-21T22:51:57.501Z,80.50
2018-09-21T22:54:26.240Z,82.20
2018-09-21T22:56:55.057Z,83.20
2018-09-21T22:59:23.814Z,82.80
2018-09-21T23:01:52.725Z,82.40
2018-09-21T23:04:21.491Z,82.10
2018-09-21T23:06:50.257Z,82.40
2018-09-21T23:09:18.984Z,82.10
2018-09-21T23:11:47.707Z,81.90
2018-09-21T23:14:16.481Z,81.80
2018-09-21T23:16:45.259Z,81.70
2018-09-21T23:19:14.062Z,81.50
2018-09-21T23:21:42.983Z,82.00
2018-09-21T23:24:11.759Z,81.60
2018-09-21T23:26:40.583Z,81.20
2018-09-21T23:29:09.373Z,81.00
2018-09-21T23:31:38.184Z,79.80
2018-09-21T23:34:06.920Z,79.60
2018-09-21T23:36:35.709Z,79.60
2018-09-21T23:39:06.137Z,79.60
2018-09-21T23:41:34.912Z,79.50
2018-09-21T23:44:03.864Z,79.50
2018-09-21T23:46:32.622Z,79.50
2018-09-21T23:49:01.378Z,79.50
2018-09-21T23:51:30.131Z,79.80
2018-09-21T23:53:58.951Z,79.60
2018-09-21T23:56:27.704Z,79.50
2018-09-21T23:58:56.557Z,79.60
